Martin State Airport Baltimore US
ICAO: KMTN
IATA: MTN
Category: Medium
Scheduled Services: No

Elevation: 21 ft
TransAlt. 18000 ft.

Airport Communications:
POTOMAC APP/DEP:119
ATIS:124.925
AWOS 3:124.925
POTOMAC CLNC DEL:121.8
CTAF:121.3
GND:121.8
135 AG COMD POST:38.59
175 FG COMD POST:34.72
TWR:121.3
UNICOM:122.95

KMTN Zoom In..

If you have problems with the map follow the link
https://www.worldairports.se/pages/airport.php?
ICAO=KMTN

Runways:

(A) RW 15 length 6997 ft width 180 ft
LOC 110.70 / hdg 146

(B) RW 33 length 6997 ft width 180 ft
LOC 110.70 / hdg 326

Location; KMTN
Day. 14 / Time. 04.35 Zulu
* Altimeter: 29.80
* Temperature: 10° c. 50°f.
* Wind from: 000° Speed 00 kn.
Dewpoint: 10° c.
Visibility: 2 m.
Clouds: Overcast 300 ft.
Conditions: Light Rain.

KMTN 140435Z AUTO 00000KT 2 1/2SM -RA OVC003 10/10 A2980 RMK AO2 P0003


Wind - Calm.

 
 
jpsmedia worldairports.se 2019   terms of use